Time;durP1;ratioP1;P1;durP2;ratioP2;P2;SDS_P1;SDS_P2;PMS_P1;PMS_P2;Temp;Humidity;BMP_temperature;BMP_pressure;BME280_temperature;BME280_humidity;BME280_pressure;Samples;Min_cycle;Max_cycle;Signal;HPM_P1;HPM_P2
2023/09/22 00:01:21;;;;;;;9.52;5.50;;;;;;;13.35;99.11;99772.06;4943485;29;20449;-83
2023/09/22 00:03:47;;;;;;;8.52;5.78;;;;;;;13.30;99.16;99768.88;4945912;28;20107;-83
2023/09/22 00:06:13;;;;;;;8.57;5.70;;;;;;;13.23;98.74;99772.75;4949387;29;20019;-83
2023/09/22 00:08:39;;;;;;;8.68;5.60;;;;;;;13.16;98.89;99767.84;4951774;28;20035;-83
2023/09/22 00:11:07;;;;;;;7.78;5.45;;;;;;;13.11;98.67;99772.47;4949664;28;20079;-83
2023/09/22 00:13:33;;;;;;;8.02;5.20;;;;;;;13.06;98.48;99771.88;4945018;29;20035;-83
2023/09/22 00:15:58;;;;;;;8.82;5.28;;;;;;;13.01;98.42;99774.75;4947300;28;20038;-83
2023/09/22 00:18:23;;;;;;;8.15;5.18;;;;;;;12.98;98.00;99777.50;4949916;28;20452;-83
2023/09/22 00:20:49;;;;;;;7.18;4.80;;;;;;;12.95;98.05;99784.66;4940114;28;20083;-83
2023/09/22 00:23:15;;;;;;;7.88;5.13;;;;;;;12.90;97.83;99772.69;4941905;29;20078;-83
2023/09/22 00:25:40;;;;;;;7.28;4.63;;;;;;;12.89;97.71;99781.44;4941272;28;20518;-83
2023/09/22 00:28:07;;;;;;;7.10;4.85;;;;;;;12.85;97.28;99774.69;4948801;29;20078;-83
2023/09/22 00:30:32;;;;;;;7.65;4.47;;;;;;;12.81;97.28;99783.59;4951944;29;20067;-83
2023/09/22 00:32:58;;;;;;;6.60;4.25;;;;;;;12.79;97.21;99777.66;4948293;28;20059;-83
2023/09/22 00:35:23;;;;;;;5.55;3.97;;;;;;;12.77;97.15;99771.66;4955653;28;20047;-83
2023/09/22 00:37:50;;;;;;;7.15;4.18;;;;;;;12.74;97.19;99767.41;4952642;29;20455;-83
2023/09/22 00:40:15;;;;;;;8.30;3.78;;;;;;;12.73;96.88;99775.34;4951749;28;20019;-83
2023/09/22 00:42:40;;;;;;;5.70;4.07;;;;;;;12.71;97.12;99779.78;4955166;28;20016;-83
2023/09/22 00:45:06;;;;;;;6.72;3.47;;;;;;;12.70;96.97;99780.72;4953745;28;20332;-85
2023/09/22 00:47:32;;;;;;;6.20;3.65;;;;;;;12.68;97.10;99785.16;4955702;28;20027;-83
2023/09/22 00:49:58;;;;;;;5.63;3.58;;;;;;;12.65;97.07;99788.78;4954619;28;20020;-83
2023/09/22 00:52:25;;;;;;;6.03;3.83;;;;;;;12.63;97.38;99790.63;4939853;28;20020;-82
2023/09/22 00:54:51;;;;;;;6.05;3.83;;;;;;;12.60;97.59;99785.56;4950424;29;20031;-83
2023/09/22 00:57:17;;;;;;;6.88;3.88;;;;;;;12.59;97.54;99789.94;4949939;28;20060;-82
2023/09/22 00:59:44;;;;;;;9.48;3.28;;;;;;;12.58;97.52;99788.25;4944583;29;20024;-83
2023/09/22 01:02:11;;;;;;;5.25;3.53;;;;;;;12.56;97.78;99778.81;4947108;28;20284;-82
2023/09/22 01:04:36;;;;;;;7.10;3.80;;;;;;;12.56;97.86;99777.06;4945355;29;20160;-83
2023/09/22 01:07:01;;;;;;;6.60;3.42;;;;;;;12.57;98.08;99786.56;4937604;29;20162;-83
2023/09/22 01:09:27;;;;;;;6.47;3.78;;;;;;;12.56;98.16;99774.44;4942977;29;20478;-83
2023/09/22 01:11:52;;;;;;;5.93;3.97;;;;;;;12.55;98.12;99783.19;4955772;29;20019;-83
2023/09/22 01:14:18;;;;;;;6.82;3.80;;;;;;;12.54;98.25;99780.69;4955805;28;20055;-82
2023/09/22 01:16:43;;;;;;;6.32;3.63;;;;;;;12.51;98.42;99786.88;4953672;28;20054;-83
2023/09/22 01:19:14;;;;;;;6.35;3.70;;;;;;;12.50;98.55;99789.56;4955214;29;20043;-82
2023/09/22 01:21:39;;;;;;;7.63;3.95;;;;;;;12.48;98.71;99784.41;4954625;28;20027;-83
2023/09/22 01:24:05;;;;;;;6.30;3.80;;;;;;;12.46;98.95;99781.06;4954994;28;20041;-83
2023/09/22 01:26:30;;;;;;;7.68;4.00;;;;;;;12.46;99.08;99791.50;4936353;29;20034;-83
2023/09/22 01:28:55;;;;;;;6.93;3.97;;;;;;;12.44;99.05;99788.94;4936605;29;20062;-83
2023/09/22 01:31:21;;;;;;;6.35;3.80;;;;;;;12.43;99.41;99784.66;4940958;29;20023;-82
2023/09/22 01:33:46;;;;;;;8.15;4.13;;;;;;;12.43;99.66;99791.66;4948342;29;20044;-83
2023/09/22 01:36:13;;;;;;;6.97;4.10;;;;;;;12.40;99.40;99783.97;4951818;29;20022;-83
2023/09/22 01:38:39;;;;;;;7.60;3.90;;;;;;;12.36;99.14;99778.06;4952943;28;20330;-83
2023/09/22 01:41:04;;;;;;;6.82;4.10;;;;;;;12.34;99.36;99787.75;4953411;28;20198;-83
2023/09/22 01:43:29;;;;;;;5.45;3.50;;;;;;;12.32;99.36;99770.47;4947020;28;20501;-82
2023/09/22 01:45:55;;;;;;;7.35;4.05;;;;;;;12.32;99.70;99776.53;4951937;29;20019;-82
2023/09/22 01:48:20;;;;;;;7.05;3.92;;;;;;;12.33;99.28;99782.59;4953819;29;20329;-82
2023/09/22 01:50:45;;;;;;;7.70;3.63;;;;;;;12.32;99.62;99773.94;4953370;29;20023;-82
2023/09/22 01:53:11;;;;;;;7.45;4.00;;;;;;;12.32;99.35;99770.47;4951894;29;20024;-82
2023/09/22 01:55:41;;;;;;;6.20;3.55;;;;;;;12.29;99.08;99768.88;4950933;28;20023;-82
2023/09/22 01:58:07;;;;;;;6.78;4.07;;;;;;;12.27;99.42;99787.22;4950562;29;20030;-82
2023/09/22 02:00:33;;;;;;;8.90;4.18;;;;;;;12.26;99.84;99782.06;4953016;28;20552;-82
2023/09/22 02:02:59;;;;;;;6.57;4.15;;;;;;;12.25;99.80;99786.44;4939697;29;20119;-84
2023/09/22 02:05:24;;;;;;;6.47;3.75;;;;;;;12.27;99.75;99779.38;4940660;29;20023;-83
2023/09/22 02:07:50;;;;;;;9.35;4.40;;;;;;;12.27;99.96;99776.78;4951928;28;20026;-83
2023/09/22 02:10:16;;;;;;;7.95;4.40;;;;;;;12.28;99.94;99788.03;4952906;29;20023;-83
2023/09/22 02:12:43;;;;;;;7.22;4.05;;;;;;;12.27;100.00;99786.34;4953157;28;20038;-83
2023/09/22 02:15:10;;;;;;;8.10;3.83;;;;;;;12.26;100.00;99777.69;4940046;29;20046;-83
2023/09/22 02:17:43;;;;;;;7.40;3.72;;;;;;;12.27;100.00;99776.78;4935063;29;20031;-83
2023/09/22 02:20:22;;;;;;;7.90;4.45;;;;;;;12.25;100.00;99776.00;4945178;29;20091;-83
2023/09/22 02:22:53;;;;;;;7.25;4.00;;;;;;;12.26;100.00;99771.63;4950645;29;20019;-82
2023/09/22 02:25:20;;;;;;;5.97;3.63;;;;;;;12.26;100.00;99782.91;4937639;29;20019;-83
2023/09/22 02:27:47;;;;;;;6.78;4.15;;;;;;;12.25;100.00;99778.63;4942938;28;20100;-83
2023/09/22 02:30:14;;;;;;;6.72;4.05;;;;;;;12.25;100.00;99786.44;4937049;28;20023;-83
2023/09/22 02:32:41;;;;;;;8.00;4.45;;;;;;;12.24;100.00;99781.28;4948866;28;20039;-82
2023/09/22 02:35:07;;;;;;;7.45;4.22;;;;;;;12.23;100.00;99783.06;4937550;28;20142;-82
2023/09/22 02:37:32;;;;;;;7.97;4.25;;;;;;;12.24;100.00;99784.75;4953551;28;20022;-82
2023/09/22 02:39:57;;;;;;;9.80;4.18;;;;;;;12.25;100.00;99780.34;4953325;29;20031;-82
2023/09/22 02:42:23;;;;;;;7.75;4.18;;;;;;;12.26;100.00;99782.91;4950733;29;20047;-83
2023/09/22 02:44:48;;;;;;;6.30;3.97;;;;;;;12.28;100.00;99780.22;4954293;28;20019;-83
2023/09/22 02:47:14;;;;;;;8.48;4.03;;;;;;;12.27;100.00;99779.38;4952062;29;20027;-82
2023/09/22 02:49:40;;;;;;;7.68;4.45;;;;;;;12.29;100.00;99771.47;4946902;28;20091;-82
2023/09/22 02:52:05;;;;;;;7.47;4.13;;;;;;;12.30;100.00;99778.38;4947585;29;20383;-83
2023/09/22 02:54:30;;;;;;;7.68;4.32;;;;;;;12.31;100.00;99777.47;4947415;28;20419;-83
2023/09/22 02:56:55;;;;;;;7.47;4.07;;;;;;;12.30;100.00;99778.38;4952659;29;20019;-83
2023/09/22 02:59:22;;;;;;;7.22;4.22;;;;;;;12.30;100.00;99779.19;4953092;29;20031;-83
2023/09/22 03:01:47;;;;;;;7.78;4.15;;;;;;;12.32;100.00;99778.28;4945210;28;20028;-83
2023/09/22 03:04:13;;;;;;;7.38;3.85;;;;;;;12.31;100.00;99780.06;4935453;29;20114;-83
2023/09/22 03:06:38;;;;;;;6.88;4.25;;;;;;;12.32;100.00;99786.97;4947758;29;20034;-83
2023/09/22 03:09:06;;;;;;;7.47;3.95;;;;;;;12.30;100.00;99779.19;4953914;29;20113;-82
2023/09/22 03:11:35;;;;;;;8.10;4.05;;;;;;;12.29;100.00;99774.94;4952068;28;20027;-83
2023/09/22 03:14:00;;;;;;;7.18;4.10;;;;;;;12.30;100.00;99768.78;4933515;28;20036;-82
2023/09/22 03:16:29;;;;;;;6.78;3.97;;;;;;;12.29;100.00;99769.72;4933477;29;20024;-83
2023/09/22 03:18:54;;;;;;;7.95;4.05;;;;;;;12.30;100.00;99767.94;4935444;29;20034;-83
2023/09/22 03:21:22;;;;;;;6.80;3.80;;;;;;;12.29;100.00;99782.75;4950986;29;20374;-82
2023/09/22 03:23:49;;;;;;;7.72;4.00;;;;;;;12.30;100.00;99783.59;4933250;29;20051;-83
2023/09/22 03:26:15;;;;;;;6.45;4.03;;;;;;;12.29;100.00;99777.53;4951536;29;20034;-83
2023/09/22 03:28:40;;;;;;;7.15;4.25;;;;;;;12.28;100.00;99783.69;4953547;28;20561;-83
2023/09/22 03:31:06;;;;;;;6.32;3.65;;;;;;;12.28;100.00;99786.28;4950789;29;20063;-83
2023/09/22 03:33:31;;;;;;;6.15;3.75;;;;;;;12.26;100.00;99785.50;4952319;28;20102;-83
2023/09/22 03:35:56;;;;;;;5.85;3.50;;;;;;;12.26;100.00;99782.91;4949344;29;20023;-83
2023/09/22 03:38:22;;;;;;;7.47;3.88;;;;;;;12.25;100.00;99782.97;4951815;29;20027;-83
2023/09/22 03:40:47;;;;;;;7.80;3.58;;;;;;;12.24;100.00;99784.75;4940932;28;20066;-83
2023/09/22 03:43:12;;;;;;;6.50;3.75;;;;;;;12.21;100.00;99784.91;4946716;28;20058;-83
2023/09/22 03:45:37;;;;;;;7.00;3.60;;;;;;;12.21;100.00;99790.09;4947836;29;20027;-83
2023/09/22 03:48:03;;;;;;;7.68;3.10;;;;;;;12.22;100.00;99780.50;4956929;29;20131;-83
2023/09/22 03:50:29;;;;;;;5.88;3.35;;;;;;;12.21;100.00;99790.09;4953005;28;20027;-83
2023/09/22 03:52:54;;;;;;;7.50;3.90;;;;;;;12.22;100.00;99785.72;4956172;28;20536;-82
2023/09/22 03:55:21;;;;;;;5.75;3.40;;;;;;;12.21;100.00;99790.09;4945669;28;20031;-83
2023/09/22 03:57:46;;;;;;;5.65;2.95;;;;;;;12.22;100.00;99783.97;4941719;29;20431;-82
2023/09/22 04:00:17;;;;;;;5.90;3.50;;;;;;;12.22;100.00;99783.97;4955534;28;20046;-83
2023/09/22 04:02:44;;;;;;;6.20;3.00;;;;;;;12.21;100.00;99782.28;4952775;28;20034;-83
2023/09/22 04:05:11;;;;;;;7.45;3.30;;;;;;;12.21;100.00;99790.09;4954185;28;20034;-83
2023/09/22 04:07:36;;;;;;;6.57;3.45;;;;;;;12.19;100.00;99797.16;4951576;29;20471;-83
2023/09/22 04:10:03;;;;;;;5.82;3.10;;;;;;;12.19;100.00;99794.56;4942211;29;20031;-82
2023/09/22 04:12:28;;;;;;;4.35;2.95;;;;;;;12.18;100.00;99792.03;4952704;28;20031;-83
2023/09/22 04:14:54;;;;;;;5.85;3.10;;;;;;;12.18;100.00;99795.47;4939668;29;20074;-83
2023/09/22 04:17:20;;;;;;;5.50;3.10;;;;;;;12.17;100.00;99798.16;4953037;29;20023;-83
2023/09/22 04:19:45;;;;;;;6.28;3.00;;;;;;;12.18;100.00;99795.47;4946497;29;20035;-83
2023/09/22 04:22:12;;;;;;;5.20;2.95;;;;;;;12.16;100.00;99794.69;4955121;29;20114;-83
2023/09/22 04:24:47;;;;;;;5.45;3.05;;;;;;;12.15;100.00;99800.81;4945828;28;20070;-83
2023/09/22 04:27:13;;;;;;;4.05;2.58;;;;;;;12.16;100.00;99801.69;4955437;29;20035;-83
2023/09/22 04:29:39;;;;;;;5.88;2.85;;;;;;;12.14;100.00;99799.13;4944744;28;20019;-83
2023/09/22 04:32:07;;;;;;;5.03;2.70;;;;;;;12.13;100.00;99806.13;4952562;28;20479;-82
2023/09/22 04:34:33;;;;;;;3.88;2.53;;;;;;;12.14;100.00;99806.97;4950992;28;20090;-83
2023/09/22 04:36:59;;;;;;;4.60;2.42;;;;;;;12.12;100.00;99801.84;4953164;28;20030;-83
2023/09/22 04:39:25;;;;;;;4.38;2.67;;;;;;;12.14;100.00;99814.78;4953371;29;20023;-83
2023/09/22 04:41:50;;;;;;;4.10;2.40;;;;;;;12.12;100.00;99801.00;4954659;29;20114;-83
2023/09/22 04:44:16;;;;;;;5.18;2.40;;;;;;;12.10;100.00;99802.84;4952068;29;20422;-83
2023/09/22 04:46:41;;;;;;;3.67;2.00;;;;;;;12.10;100.00;99808.06;4955576;28;20070;-83
2023/09/22 04:49:09;;;;;;;4.97;2.33;;;;;;;12.10;100.00;99808.06;4955587;28;20115;-83
2023/09/22 04:51:35;;;;;;;3.88;2.30;;;;;;;12.11;100.00;99804.53;4940220;28;20035;-83
2023/09/22 04:54:01;;;;;;;4.47;2.20;;;;;;;12.09;100.00;99809.81;4943844;28;20027;-82
2023/09/22 04:56:26;;;;;;;4.15;2.40;;;;;;;12.09;100.00;99807.19;4945196;29;20024;-83
2023/09/22 04:58:53;;;;;;;4.57;1.98;;;;;;;12.07;100.00;99802.97;4953916;29;20227;-83
2023/09/22 05:01:19;;;;;;;5.43;2.13;;;;;;;12.05;100.00;99802.22;4949428;29;20032;-83
2023/09/22 05:03:45;;;;;;;4.25;1.95;;;;;;;12.06;100.00;99811.72;4944591;29;20030;-83
2023/09/22 05:06:10;;;;;;;3.65;1.77;;;;;;;12.04;100.00;99814.38;4947229;29;20305;-83
2023/09/22 05:08:37;;;;;;;3.45;1.85;;;;;;;12.06;100.00;99811.72;4949029;29;20047;-83
2023/09/22 05:11:05;;;;;;;3.28;2.15;;;;;;;12.03;100.00;99815.34;4944949;29;20023;-82
2023/09/22 05:13:30;;;;;;;4.72;2.10;;;;;;;12.02;100.00;99825.81;4936069;29;20443;-83
2023/09/22 05:16:03;;;;;;;4.80;1.90;;;;;;;12.02;100.00;99825.81;4947235;28;20031;-83
2023/09/22 05:18:29;;;;;;;4.95;1.92;;;;;;;12.02;100.00;99831.03;4937571;29;20135;-83
2023/09/22 05:20:54;;;;;;;6.25;1.88;;;;;;;12.01;100.00;99834.56;4936843;29;20070;-82
2023/09/22 05:23:19;;;;;;;3.28;1.90;;;;;;;11.98;100.00;99832.91;4947695;28;20034;-82
2023/09/22 05:25:44;;;;;;;5.30;2.17;;;;;;;11.98;100.00;99835.53;4942088;29;20478;-83
2023/09/22 05:28:11;;;;;;;3.75;1.90;;;;;;;11.97;100.00;99836.44;4937088;29;20028;-83
2023/09/22 05:30:38;;;;;;;3.13;1.90;;;;;;;11.97;100.00;99846.88;4952099;29;20036;-83
2023/09/22 05:33:06;;;;;;;2.88;1.90;;;;;;;11.95;100.00;99844.34;4945252;28;20030;-83
2023/09/22 05:35:32;;;;;;;4.63;1.80;;;;;;;11.95;100.00;99853.91;4948694;29;20045;-83
2023/09/22 05:37:57;;;;;;;4.22;1.83;;;;;;;11.93;100.00;99853.13;4955227;28;20019;-83
2023/09/22 05:40:23;;;;;;;5.40;1.90;;;;;;;11.93;100.00;99859.22;4952906;29;20031;-82
2023/09/22 05:42:48;;;;;;;3.65;1.88;;;;;;;11.93;100.00;99859.22;4937213;29;20035;-83
2023/09/22 05:45:14;;;;;;;4.63;1.70;;;;;;;11.91;100.00;99853.22;4940741;29;20091;-82
2023/09/22 05:47:39;;;;;;;4.15;1.85;;;;;;;11.92;100.00;99849.69;4954149;28;20028;-83
2023/09/22 05:50:05;;;;;;;4.18;1.60;;;;;;;11.94;100.00;99866.13;4949213;29;20030;-83
2023/09/22 05:52:30;;;;;;;3.85;1.70;;;;;;;11.93;100.00;99858.34;4953179;29;20019;-82
2023/09/22 05:54:56;;;;;;;2.90;1.60;;;;;;;11.93;100.00;99871.38;4955141;29;20094;-82
2023/09/22 05:57:21;;;;;;;2.88;1.42;;;;;;;11.93;100.00;99869.63;4955016;28;20383;-83
2023/09/22 05:59:47;;;;;;;2.70;1.30;;;;;;;11.93;100.00;99879.19;4950437;28;20479;-83
2023/09/22 06:02:12;;;;;;;3.80;1.45;;;;;;;11.93;100.00;99882.66;4947486;29;20076;-83
2023/09/22 06:04:37;;;;;;;4.75;1.67;;;;;;;11.93;100.00;99873.97;4935788;29;20106;-83
2023/09/22 06:07:03;;;;;;;3.15;1.88;;;;;;;11.96;100.00;99872.06;4949423;28;20027;-83
2023/09/22 06:09:31;;;;;;;3.53;1.50;;;;;;;11.97;100.00;99871.16;4952524;29;20027;-83
2023/09/22 06:11:56;;;;;;;3.28;1.40;;;;;;;11.99;100.00;99874.56;4950366;29;20030;-82
2023/09/22 06:14:22;;;;;;;2.92;1.42;;;;;;;12.01;100.00;99876.25;4938440;29;20023;-83
2023/09/22 06:16:49;;;;;;;2.85;1.77;;;;;;;12.03;100.00;99890.94;4953927;29;20031;-83
2023/09/22 06:19:15;;;;;;;3.95;1.50;;;;;;;12.05;100.00;99896.88;4946131;29;20391;-82
2023/09/22 06:21:40;;;;;;;2.83;1.50;;;;;;;12.07;100.00;99896.84;4952226;28;20038;-83
2023/09/22 06:24:06;;;;;;;3.42;1.40;;;;;;;12.08;100.00;99894.16;4951888;29;20042;-82
2023/09/22 06:26:32;;;;;;;3.13;1.42;;;;;;;12.10;100.00;99888.88;4946570;28;20370;-83
2023/09/22 06:28:57;;;;;;;3.05;1.45;;;;;;;12.12;100.00;99900.09;4942246;29;20020;-83
2023/09/22 06:31:23;;;;;;;1.80;1.30;;;;;;;12.13;100.00;99889.56;4943820;29;20458;-83
2023/09/22 06:33:49;;;;;;;1.75;1.30;;;;;;;12.14;100.00;99886.03;4944928;29;20051;-83
2023/09/22 06:36:15;;;;;;;3.17;1.45;;;;;;;12.15;100.00;99884.25;4941231;29;20023;-82
2023/09/22 06:38:40;;;;;;;3.92;1.45;;;;;;;12.17;100.00;99882.44;4949100;29;20028;-82
2023/09/22 06:41:06;;;;;;;2.97;1.50;;;;;;;12.19;100.00;99893.63;4938005;29;20030;-83
2023/09/22 06:43:33;;;;;;;2.33;1.38;;;;;;;12.22;100.00;99890.88;4944860;28;20035;-83
2023/09/22 06:46:02;;;;;;;3.20;1.30;;;;;;;12.25;100.00;99900.31;4945750;29;20019;-82
2023/09/22 06:48:29;;;;;;;3.17;1.23;;;;;;;12.27;100.00;99898.47;4947644;29;20070;-82
2023/09/22 06:50:57;;;;;;;2.38;1.23;;;;;;;12.31;100.00;99900.03;4942106;29;20034;-83
2023/09/22 06:53:23;;;;;;;3.55;1.20;;;;;;;12.34;100.00;99904.25;4948047;28;20023;-83
2023/09/22 06:55:49;;;;;;;2.25;1.30;;;;;;;12.35;100.00;99905.94;4941810;29;20019;-83
2023/09/22 06:58:14;;;;;;;4.30;1.20;;;;;;;12.37;100.00;99898.88;4944455;28;20404;-84
2023/09/22 07:00:39;;;;;;;1.73;0.98;;;;;;;12.40;100.00;99903.97;4941411;29;20034;-84
2023/09/22 07:03:05;;;;;;;3.10;1.20;;;;;;;12.41;100.00;99910.88;4940311;28;20027;-83
2023/09/22 07:05:31;;;;;;;2.50;1.10;;;;;;;12.44;100.00;99910.72;4941598;28;20031;-82
2023/09/22 07:07:57;;;;;;;3.47;1.20;;;;;;;12.44;100.00;99910.72;4939120;29;20402;-85
2023/09/22 07:10:23;;;;;;;2.10;1.00;;;;;;;12.47;100.00;99913.16;4942035;28;20078;-85
2023/09/22 07:12:49;;;;;;;1.55;0.90;;;;;;;12.51;100.00;99917.31;4942752;28;20394;-84
2023/09/22 07:15:14;;;;;;;2.92;0.90;;;;;;;12.55;100.00;99918.03;4944082;29;20483;-84
2023/09/22 07:17:42;;;;;;;2.15;1.00;;;;;;;12.57;100.00;99921.38;4958711;28;20033;-85
2023/09/22 07:20:12;;;;;;;4.03;1.08;;;;;;;12.61;100.00;99922.94;4944745;28;20027;-83
2023/09/22 07:22:37;;;;;;;3.30;1.10;;;;;;;12.66;100.00;99927.91;4941702;28;20211;-85
2023/09/22 07:25:03;;;;;;;2.90;1.10;;;;;;;12.68;100.00;99941.75;4935796;29;20027;-86
2023/09/22 07:27:28;;;;;;;2.65;1.10;;;;;;;12.71;100.00;99939.84;4935477;29;20029;-84
2023/09/22 07:29:54;;;;;;;5.18;0.80;;;;;;;12.74;100.00;99939.66;4933699;29;20159;-82
2023/09/22 07:32:20;;;;;;;2.95;1.00;;;;;;;12.77;99.99;99949.13;4933681;29;20038;-83
2023/09/22 07:34:45;;;;;;;3.05;0.90;;;;;;;12.80;99.62;99959.44;4934204;29;20051;-82
2023/09/22 07:37:12;;;;;;;2.65;1.00;;;;;;;12.83;99.90;99948.81;4934992;29;20039;-83
2023/09/22 07:39:38;;;;;;;1.50;0.90;;;;;;;12.86;98.85;99966.94;4936460;29;20057;-83
2023/09/22 07:42:05;;;;;;;3.47;0.98;;;;;;;12.90;99.76;99959.78;4937526;28;20317;-85
2023/09/22 07:44:31;;;;;;;2.70;0.77;;;;;;;12.95;98.32;99962.19;4936662;29;20053;-86
2023/09/22 07:46:58;;;;;;;1.45;0.88;;;;;;;12.96;97.68;99969.09;4935020;29;20400;-85
2023/09/22 07:49:25;;;;;;;1.55;0.80;;;;;;;12.99;97.30;99975.00;4930671;29;20154;-86
2023/09/22 07:51:50;;;;;;;2.08;0.70;;;;;;;13.03;97.67;99975.69;4935475;29;20090;-86
2023/09/22 07:54:16;;;;;;;1.58;0.80;;;;;;;13.06;97.15;99972.94;4936007;29;20121;-85
2023/09/22 07:56:41;;;;;;;2.28;0.80;;;;;;;13.11;97.21;99973.56;4934902;29;20504;-86
2023/09/22 07:59:06;;;;;;;2.88;0.90;;;;;;;13.14;95.61;99973.41;4935145;29;20475;-86
2023/09/22 08:01:31;;;;;;;2.50;0.73;;;;;;;13.21;96.96;99974.78;4937073;29;20039;-82
2023/09/22 08:03:57;;;;;;;2.25;0.98;;;;;;;13.21;94.46;99980.00;4939075;28;20968;-82
2023/09/22 08:06:23;;;;;;;1.60;0.63;;;;;;;13.24;94.00;99972.94;4935333;29;20038;-83
2023/09/22 08:08:49;;;;;;;4.13;0.90;;;;;;;13.27;94.85;99983.22;4933367;28;20503;-82
2023/09/22 08:11:18;;;;;;;3.22;0.75;;;;;;;13.30;93.55;99980.47;4933795;29;20118;-87
2023/09/22 08:13:45;;;;;;;1.65;0.60;;;;;;;13.35;93.24;99996.72;4933904;29;21027;-85
2023/09/22 08:16:12;;;;;;;3.88;0.73;;;;;;;13.37;92.20;99994.88;4949419;28;20466;-83
2023/09/22 08:18:40;;;;;;;1.10;0.60;;;;;;;13.39;91.67;100008.72;4934869;29;20039;-84
2023/09/22 08:21:05;;;;;;;2.45;0.70;;;;;;;13.44;93.05;100005.88;4938512;29;20028;-86
2023/09/22 08:23:30;;;;;;;1.92;0.68;;;;;;;13.46;91.63;100009.28;4936716;28;20034;-86
2023/09/22 08:25:56;;;;;;;1.88;0.70;;;;;;;13.50;91.37;100013.44;4936235;29;20498;-87
2023/09/22 08:28:23;;;;;;;2.03;0.80;;;;;;;13.55;90.63;100008.81;4934732;29;20127;-86
2023/09/22 08:30:49;;;;;;;1.25;0.70;;;;;;;13.59;90.74;100010.31;4934541;28;20027;-87
2023/09/22 08:33:14;;;;;;;1.27;0.80;;;;;;;13.62;89.14;100015.41;4937771;29;20386;-86
2023/09/22 08:35:40;;;;;;;4.13;0.80;;;;;;;13.63;89.31;100018.88;4936185;29;21060;-87
2023/09/22 08:38:05;;;;;;;1.70;0.60;;;;;;;13.66;88.67;100016.09;4937291;28;20027;-87
2023/09/22 08:40:31;;;;;;;2.00;0.60;;;;;;;13.70;88.30;100020.22;4935554;29;20512;-83
2023/09/22 08:42:57;;;;;;;1.48;0.60;;;;;;;13.73;87.53;100022.69;4936700;29;20533;-83
2023/09/22 08:45:23;;;;;;;1.67;0.55;;;;;;;13.76;86.63;100019.06;4938410;28;20019;-87
2023/09/22 08:47:49;;;;;;;1.83;0.63;;;;;;;13.80;86.09;100018.84;4940155;28;20142;-87
2023/09/22 08:50:17;;;;;;;2.40;0.47;;;;;;;13.84;86.71;100018.66;4937904;29;20027;-87
2023/09/22 08:52:45;;;;;;;1.60;0.65;;;;;;;13.87;85.64;100018.50;4940246;29;20391;-86
2023/09/22 08:55:13;;;;;;;1.70;0.60;;;;;;;13.92;84.97;100024.34;4939005;29;20036;-86
2023/09/22 08:57:40;;;;;;;4.35;0.70;;;;;;;13.93;84.97;100026.84;4937152;29;20471;-86
2023/09/22 09:00:11;;;;;;;2.63;0.77;;;;;;;13.97;83.38;100032.78;4936906;29;20046;-85
2023/09/22 09:02:37;;;;;;;1.40;0.70;;;;;;;14.01;82.82;100036.91;4936427;28;20110;-85
2023/09/22 09:05:18;;;;;;;2.05;0.50;;;;;;;14.06;84.57;100029.66;4936634;29;20681;-84
2023/09/22 09:07:43;;;;;;;1.50;0.57;;;;;;;14.08;82.80;100029.59;4939469;29;20050;-84
2023/09/22 09:10:10;;;;;;;0.98;0.60;;;;;;;14.13;82.07;100045.03;4943166;28;20032;-84
2023/09/22 09:12:44;;;;;;;0.63;0.40;;;;;;;14.18;82.90;100046.50;4942966;29;20498;-84
2023/09/22 09:15:10;;;;;;;1.63;0.50;;;;;;;14.23;82.00;100046.22;4941344;29;20487;-84
2023/09/22 09:17:36;;;;;;;1.95;0.77;;;;;;;14.29;81.69;100045.91;4943730;28;20026;-83
2023/09/22 09:20:02;;;;;;;2.75;0.60;;;;;;;14.30;81.84;100050.22;4946488;28;20062;-83
2023/09/22 09:22:32;;;;;;;1.63;0.70;;;;;;;14.31;81.47;100046.69;4942322;28;20094;-84
2023/09/22 09:25:02;;;;;;;1.02;0.50;;;;;;;14.34;81.11;100043.03;4942268;29;20058;-83
2023/09/22 09:27:28;;;;;;;0.90;0.50;;;;;;;14.37;79.38;100042.88;4942236;29;20027;-83
2023/09/22 09:29:54;;;;;;;1.67;0.68;;;;;;;14.38;79.38;100044.56;4944346;28;20049;-84
2023/09/22 09:32:27;;;;;;;3.08;0.65;;;;;;;14.44;81.18;100038.16;4941229;28;20035;-84
2023/09/22 09:34:52;;;;;;;1.90;0.60;;;;;;;14.50;79.54;100048.28;4941775;29;20243;-83
2023/09/22 09:37:19;;;;;;;1.23;0.57;;;;;;;14.55;80.49;100046.25;4943885;28;20023;-83
2023/09/22 09:39:52;;;;;;;1.20;0.50;;;;;;;14.56;78.88;100053.16;4942535;28;20031;-84
2023/09/22 09:42:23;;;;;;;0.55;0.50;;;;;;;14.56;79.11;100047.94;4943200;29;20023;-84
2023/09/22 09:44:50;;;;;;;2.97;0.50;;;;;;;14.57;79.51;100049.63;4943433;29;20027;-84
2023/09/22 09:47:26;;;;;;;1.65;0.47;;;;;;;14.57;80.26;100050.47;4944628;29;20121;-83
2023/09/22 09:49:53;;;;;;;2.38;0.60;;;;;;;14.60;78.75;100062.56;4946222;29;20487;-84
2023/09/22 09:52:48;;;;;;;1.80;0.50;;;;;;;14.63;80.82;100054.53;4943955;28;20034;-83
2023/09/22 09:55:14;;;;;;;1.50;0.60;;;;;;;14.60;78.33;100065.16;4939867;28;20113;-84
2023/09/22 09:57:44;;;;;;;4.43;0.77;;;;;;;14.58;78.77;100056.56;4934507;28;20506;-85
2023/09/22 10:00:13;;;;;;;0.73;0.40;;;;;;;14.57;78.23;100052.25;4937488;28;20089;-85
2023/09/22 10:02:46;;;;;;;2.00;0.60;;;;;;;14.59;78.79;100050.38;4938143;28;20035;-86
2023/09/22 10:05:17;;;;;;;1.33;0.40;;;;;;;14.67;78.32;100050.81;4938802;29;20508;-87
2023/09/22 10:07:43;;;;;;;;;;;;;;;14.79;81.95;100045.84;4945354;29;20042;-86
2023/09/22 10:10:13;;;;;;;4.18;0.68;;;;;;;14.85;78.68;100048.13;4944352;28;19957;-87
2023/09/22 10:12:39;;;;;;;2.65;0.60;;;;;;;14.91;77.23;100049.56;4960138;28;20554;-86
2023/09/22 10:15:05;;;;;;;4.82;1.33;;;;;;;14.94;76.10;100047.59;4943493;28;20066;-84
2023/09/22 10:17:31;;;;;;;2.97;0.60;;;;;;;15.00;77.50;100044.63;4937149;29;20051;-87
2023/09/22 10:20:00;;;;;;;6.50;0.90;;;;;;;15.05;75.99;100039.13;4935066;29;20030;-85
2023/09/22 10:22:28;;;;;;;2.50;0.50;;;;;;;15.08;75.32;100043.34;4935143;29;20028;-85
2023/09/22 10:25:11;;;;;;;2.35;0.60;;;;;;;15.12;78.23;100045.69;4936603;28;20126;-90
2023/09/22 10:27:57;;;;;;;4.40;0.60;;;;;;;15.12;76.72;100040.44;4936536;28;20952;-84
2023/09/22 10:30:25;;;;;;;3.35;0.50;;;;;;;15.16;74.76;100046.38;4935448;29;20130;-83
2023/09/22 10:33:16;;;;;;;3.42;0.68;;;;;;;15.22;75.89;100040.75;4941071;28;20475;-84
2023/09/22 10:35:42;;;;;;;2.63;0.85;;;;;;;15.25;74.86;100040.59;4939028;28;20036;-84
2023/09/22 10:38:14;;;;;;;1.85;0.50;;;;;;;15.29;77.46;100023.75;4943051;29;20027;-84
2023/09/22 10:40:59;;;;;;;1.25;0.50;;;;;;;15.39;77.18;100036.31;4945771;29;20122;-84
2023/09/22 10:43:26;;;;;;;3.28;0.60;;;;;;;15.38;74.00;100026.75;4943068;29;20027;-86
2023/09/22 10:45:52;;;;;;;1.83;0.50;;;;;;;15.42;74.86;100026.50;4953665;28;20359;-84
2023/09/22 10:48:18;;;;;;;1.95;0.52;;;;;;;15.48;73.53;100035.78;4947072;28;20038;-85
2023/09/22 10:50:49;;;;;;;2.05;0.45;;;;;;;15.54;72.44;100029.31;4943809;29;20027;-83
2023/09/22 10:53:14;;;;;;;1.52;0.45;;;;;;;15.57;72.34;100034.38;4948088;28;20032;-85
2023/09/22 10:55:42;;;;;;;2.72;0.50;;;;;;;15.59;72.04;100027.28;4952686;29;20038;-86
2023/09/22 10:58:11;;;;;;;1.27;0.50;;;;;;;15.63;75.73;100028.75;4944761;28;20479;-83
2023/09/22 11:00:45;;;;;;;4.72;1.02;;;;;;;15.66;72.17;100025.97;4940451;29;20491;-85
2023/09/22 11:03:12;;;;;;;2.30;0.45;;;;;;;15.73;76.08;100027.28;4946716;29;20479;-85
2023/09/22 11:05:39;;;;;;;3.40;0.45;;;;;;;15.76;71.60;100036.72;4948924;29;20031;-86
2023/09/22 11:08:17;;;;;;;2.35;0.40;;;;;;;15.81;71.90;100037.31;4953041;28;20412;-86
2023/09/22 11:10:46;;;;;;;4.93;0.50;;;;;;;15.85;72.34;100028.34;4946093;28;20525;-88
2023/09/22 11:13:14;;;;;;;4.63;0.80;;;;;;;15.88;71.63;100032.56;4944334;28;20504;-86
2023/09/22 11:15:56;;;;;;;1.33;0.40;;;;;;;15.94;73.95;100037.44;4939159;29;20340;-86
2023/09/22 11:18:32;;;;;;;1.90;0.50;;;;;;;15.97;74.21;100036.41;4951696;29;20023;-86
2023/09/22 11:21:05;;;;;;;1.52;0.60;;;;;;;15.97;71.13;100046.91;4951411;29;20207;-86
2023/09/22 11:23:32;;;;;;;2.40;0.47;;;;;;;15.95;72.22;100043.53;4953398;28;20093;-88
2023/09/22 11:26:18;;;;;;;2.13;0.50;;;;;;;15.93;70.21;100052.31;4941868;28;20130;-86